createdAt,value
2023-04-18T00:01:15.535Z,7.57
2023-04-18T00:04:19.234Z,5.53
2023-04-18T00:10:24.295Z,5.70
2023-04-18T00:13:28.424Z,5.87
2023-04-18T00:16:33.129Z,6.40
2023-04-18T00:19:37.640Z,6.32
2023-04-18T00:22:43.901Z,6.32
2023-04-18T00:25:46.124Z,7.30
2023-04-18T00:28:48.863Z,5.28
2023-04-18T00:31:52.874Z,5.97
2023-04-18T00:34:55.359Z,6.30
2023-04-18T00:37:58.325Z,5.75
2023-04-18T00:41:00.809Z,6.90
2023-04-18T00:44:03.048Z,7.03
2023-04-18T00:47:05.946Z,6.50
2023-04-18T00:50:09.827Z,6.18
2023-04-18T00:53:13.450Z,6.37
2023-04-18T00:56:16.169Z,6.47
2023-04-18T00:59:18.964Z,7.35
2023-04-18T01:02:21.318Z,5.78
2023-04-18T01:05:24.050Z,6.83
2023-04-18T01:08:27.797Z,8.30
2023-04-18T01:11:32.826Z,5.78
2023-04-18T01:14:35.064Z,5.60
2023-04-18T01:20:45.826Z,7.95
2023-04-18T01:23:49.044Z,6.65
2023-04-18T01:26:51.381Z,6.05
2023-04-18T01:29:54.002Z,7.25
2023-04-18T01:32:56.372Z,6.90
2023-04-18T01:36:01.525Z,8.27
2023-04-18T01:39:06.645Z,7.37
2023-04-18T01:42:09.181Z,6.97
2023-04-18T01:48:15.840Z,8.43
2023-04-18T01:51:18.043Z,7.40
2023-04-18T01:54:20.639Z,5.07
2023-04-18T01:57:23.050Z,6.32
2023-04-18T02:00:25.980Z,7.12
2023-04-18T02:03:28.540Z,8.43
2023-04-18T02:06:31.283Z,6.78
2023-04-18T02:09:35.102Z,6.40
2023-04-18T02:12:38.886Z,8.40
2023-04-18T02:15:41.395Z,7.80
2023-04-18T02:18:43.914Z,7.20
2023-04-18T02:21:46.131Z,6.80
2023-04-18T02:24:49.975Z,7.87
2023-04-18T02:27:52.958Z,9.18
2023-04-18T02:30:55.923Z,6.72
2023-04-18T02:33:59.231Z,7.53
2023-04-18T02:40:05.716Z,7.25
2023-04-18T02:43:09.109Z,8.68
2023-04-18T02:46:12.108Z,7.10
2023-04-18T02:49:14.747Z,6.93
2023-04-18T02:52:17.137Z,6.82
2023-04-18T02:55:19.738Z,7.78
2023-04-18T02:58:22.733Z,7.32
2023-04-18T03:01:26.590Z,8.25
2023-04-18T03:04:29.277Z,10.10
2023-04-18T03:07:32.317Z,9.30
2023-04-18T03:10:34.955Z,7.80
2023-04-18T03:13:37.760Z,7.83
2023-04-18T03:16:40.665Z,8.50
2023-04-18T03:19:45.426Z,7.93
2023-04-18T03:25:52.023Z,8.63
2023-04-18T03:28:54.617Z,8.85
2023-04-18T03:31:57.084Z,7.90
2023-04-18T03:34:59.602Z,9.38
2023-04-18T03:38:02.159Z,9.85
2023-04-18T03:41:04.885Z,11.15
2023-04-18T03:44:07.721Z,8.48
2023-04-18T03:47:11.251Z,8.57
2023-04-18T03:50:15.286Z,10.70
2023-04-18T03:53:18.201Z,12.07
2023-04-18T03:56:20.935Z,8.50
2023-04-18T03:59:23.423Z,10.48
2023-04-18T04:02:26.408Z,10.00
2023-04-18T04:05:29.367Z,10.73
2023-04-18T04:08:32.579Z,8.15
2023-04-18T04:11:35.110Z,9.35
2023-04-18T04:14:38.115Z,8.38
2023-04-18T04:17:41.091Z,10.43
2023-04-18T04:20:46.221Z,10.73
2023-04-18T04:23:49.052Z,9.35
2023-04-18T04:26:53.258Z,8.07
2023-04-18T04:29:56.835Z,8.20
2023-04-18T04:32:59.759Z,10.68
2023-04-18T04:36:02.410Z,8.93
2023-04-18T04:39:05.590Z,9.23
2023-04-18T04:42:09.668Z,9.73
2023-04-18T04:45:13.810Z,8.88
2023-04-18T04:48:16.749Z,11.05
2023-04-18T04:51:18.956Z,8.57
2023-04-18T04:54:21.546Z,9.48
2023-04-18T04:57:24.048Z,10.38
2023-04-18T05:00:27.240Z,10.15
2023-04-18T05:03:29.588Z,9.50
2023-04-18T05:06:32.462Z,10.48
2023-04-18T05:09:34.653Z,10.98
2023-04-18T05:12:40.066Z,10.18
2023-04-18T05:15:42.668Z,10.18
2023-04-18T05:18:45.127Z,10.00
2023-04-18T05:21:47.356Z,11.07
2023-04-18T05:24:49.783Z,12.93
2023-04-18T05:27:52.079Z,12.65
2023-04-18T05:31:01.032Z,10.98
2023-04-18T05:34:03.528Z,9.95
2023-04-18T05:37:06.415Z,13.00
2023-04-18T05:40:09.148Z,11.43
2023-04-18T05:43:11.827Z,11.10
2023-04-18T05:46:14.451Z,10.38
2023-04-18T05:49:17.092Z,11.53
2023-04-18T05:52:19.366Z,10.40
2023-04-18T05:55:21.976Z,10.90
2023-04-18T05:58:24.162Z,11.93
2023-04-18T06:01:27.511Z,10.75
2023-04-18T06:04:30.166Z,11.25
2023-04-18T06:07:32.779Z,8.77
2023-04-18T06:10:37.665Z,8.60
2023-04-18T06:13:41.702Z,10.70
2023-04-18T06:16:46.831Z,9.73
2023-04-18T06:19:49.603Z,8.50
2023-04-18T06:22:52.360Z,9.32
2023-04-18T06:25:54.892Z,9.20
2023-04-18T06:28:57.469Z,8.77
2023-04-18T06:32:00.007Z,11.80
2023-04-18T06:35:02.664Z,8.35
2023-04-18T06:38:04.803Z,7.78
2023-04-18T06:41:07.302Z,9.00
2023-04-18T06:44:09.548Z,9.05
2023-04-18T06:47:12.344Z,7.05
2023-04-18T06:50:15.150Z,8.23
2023-04-18T06:53:17.890Z,7.50
2023-04-18T06:56:21.170Z,8.20
2023-04-18T06:59:23.785Z,7.10
2023-04-18T07:02:26.180Z,6.85
2023-04-18T07:05:28.852Z,8.23
2023-04-18T07:08:31.192Z,8.15
2023-04-18T07:11:34.106Z,8.55
2023-04-18T07:14:36.312Z,9.93
2023-04-18T07:17:39.437Z,10.00
2023-04-18T07:20:41.776Z,9.80
2023-04-18T07:23:44.262Z,8.03
2023-04-18T07:26:46.465Z,8.48
2023-04-18T07:29:48.894Z,7.28
2023-04-18T07:32:51.312Z,8.63
2023-04-18T07:35:53.840Z,6.75
2023-04-18T07:38:55.967Z,7.12
2023-04-18T07:41:58.891Z,8.48
2023-04-18T07:45:01.114Z,8.67
2023-04-18T07:48:04.252Z,6.62
2023-04-18T07:51:06.526Z,7.22
2023-04-18T07:54:11.075Z,7.57
2023-04-18T07:57:13.389Z,9.48
2023-04-18T08:00:17.472Z,6.93
2023-04-18T08:03:20.211Z,7.47
2023-04-18T08:06:23.197Z,6.83
2023-04-18T08:12:28.309Z,6.00
2023-04-18T08:15:33.039Z,6.20
2023-04-18T08:18:35.886Z,6.82
2023-04-18T08:21:39.856Z,6.22
2023-04-18T08:25:04.425Z,6.20
2023-04-18T08:28:08.575Z,6.43
2023-04-18T08:31:15.066Z,5.53
2023-04-18T08:34:17.740Z,9.27
2023-04-18T08:37:19.952Z,9.35
2023-04-18T08:40:27.835Z,5.93
2023-04-18T08:43:38.878Z,6.62
2023-04-18T08:46:41.851Z,6.05
2023-04-18T08:49:45.550Z,5.70
2023-04-18T08:52:51.174Z,5.28
2023-04-18T08:55:57.440Z,7.32
2023-04-18T08:59:00.199Z,7.18
2023-04-18T09:02:04.224Z,6.07
2023-04-18T09:05:20.105Z,3.95
2023-04-18T09:08:24.372Z,2.78
2023-04-18T09:11:29.696Z,4.15
2023-04-18T09:14:32.662Z,4.07
2023-04-18T09:17:42.432Z,4.45
2023-04-18T09:20:47.712Z,7.43
2023-04-18T09:23:50.504Z,6.25
2023-04-18T09:26:54.077Z,4.78
2023-04-18T09:29:58.034Z,4.15
2023-04-18T09:33:03.283Z,5.18
2023-04-18T09:36:19.643Z,4.97
2023-04-18T09:39:28.620Z,2.95
2023-04-18T09:42:36.208Z,5.97
2023-04-18T09:45:39.023Z,5.07
2023-04-18T09:48:41.945Z,5.37
2023-04-18T09:51:46.210Z,3.73
2023-04-18T09:54:53.784Z,5.05
2023-04-18T09:57:57.164Z,7.15
2023-04-18T10:01:00.263Z,4.87
2023-04-18T10:04:06.308Z,4.68
2023-04-18T10:07:08.925Z,5.90
2023-04-18T10:10:12.028Z,4.75
2023-04-18T10:13:14.730Z,7.75
2023-04-18T10:16:18.143Z,7.37
2023-04-18T10:19:23.266Z,6.78
2023-04-18T10:22:27.495Z,5.20
2023-04-18T10:25:38.853Z,8.63
2023-04-18T10:28:58.044Z,5.82
2023-04-18T10:32:06.204Z,5.28
2023-04-18T10:35:10.562Z,6.47
2023-04-18T10:38:23.255Z,4.85
2023-04-18T10:41:27.893Z,2.87
2023-04-18T10:44:30.041Z,3.00
2023-04-18T10:47:32.746Z,5.63
2023-04-18T10:50:55.034Z,6.73
2023-04-18T10:54:00.875Z,3.60
2023-04-18T10:57:04.479Z,9.35
2023-04-18T11:00:13.732Z,3.22
2023-04-18T11:03:16.263Z,3.92
2023-04-18T11:06:19.027Z,3.70
2023-04-18T11:12:36.104Z,2.22
2023-04-18T11:21:52.635Z,3.50
2023-04-18T11:25:00.129Z,5.60
2023-04-18T11:28:03.967Z,2.53
2023-04-18T11:31:06.804Z,2.78
2023-04-18T11:34:09.242Z,3.92
2023-04-18T11:37:15.512Z,2.85
2023-04-18T11:40:17.835Z,6.87
2023-04-18T11:43:22.658Z,3.62
2023-04-18T11:46:37.864Z,4.25
2023-04-18T11:49:40.621Z,4.90
2023-04-18T11:52:43.090Z,3.53
2023-04-18T11:55:55.857Z,3.87
2023-04-18T11:58:58.235Z,4.22
2023-04-18T12:02:15.263Z,9.20
2023-04-18T12:05:27.624Z,5.22
2023-04-18T12:08:31.727Z,3.17
2023-04-18T12:11:34.664Z,4.45
2023-04-18T12:14:36.844Z,3.45
2023-04-18T12:17:39.456Z,5.67
2023-04-18T12:20:52.378Z,5.78
2023-04-18T12:23:55.533Z,4.35
2023-04-18T12:26:58.581Z,3.70
2023-04-18T12:33:04.206Z,3.22
2023-04-18T12:36:08.554Z,6.37
2023-04-18T12:39:10.802Z,3.97
2023-04-18T12:42:13.669Z,3.45
2023-04-18T12:45:17.469Z,2.95
2023-04-18T12:48:20.228Z,4.50
2023-04-18T12:51:23.221Z,3.63
2023-04-18T12:54:25.807Z,4.00
2023-04-18T12:57:29.441Z,4.28
2023-04-18T13:00:34.227Z,6.72
2023-04-18T13:03:37.325Z,6.80
2023-04-18T13:06:40.413Z,5.12
2023-04-18T13:09:42.716Z,4.23
2023-04-18T13:12:46.474Z,3.97
2023-04-18T13:15:48.764Z,5.00
2023-04-18T13:18:51.244Z,4.37
2023-04-18T13:21:53.392Z,5.55
2023-04-18T13:24:55.911Z,4.97
2023-04-18T13:27:58.534Z,5.68
2023-04-18T13:31:01.228Z,3.35
2023-04-18T13:34:03.511Z,3.92
2023-04-18T13:37:06.586Z,7.33
2023-04-18T13:40:09.435Z,4.53
2023-04-18T13:43:13.072Z,3.83
2023-04-18T13:49:18.048Z,7.80
2023-04-18T13:52:20.357Z,7.20
2023-04-18T13:55:22.974Z,3.67
2023-04-18T13:58:25.650Z,6.53
2023-04-18T14:01:28.418Z,4.40
2023-04-18T14:04:32.736Z,3.33
2023-04-18T14:07:36.263Z,4.82
2023-04-18T14:10:38.955Z,6.12
2023-04-18T14:13:41.295Z,4.37
2023-04-18T14:16:43.967Z,6.32
2023-04-18T14:19:46.188Z,4.97
2023-04-18T14:22:52.322Z,4.07
2023-04-18T14:25:55.575Z,3.28
2023-04-18T14:28:58.162Z,11.52
2023-04-18T14:32:00.750Z,5.30
2023-04-18T14:35:05.950Z,5.37
2023-04-18T14:38:08.249Z,3.62
2023-04-18T14:41:11.145Z,5.33
2023-04-18T14:44:14.585Z,6.23
2023-04-18T14:47:18.534Z,5.72
2023-04-18T14:50:20.826Z,4.22
2023-04-18T14:53:23.780Z,4.50
2023-04-18T14:56:26.639Z,3.90
2023-04-18T14:59:29.153Z,5.57
2023-04-18T15:02:31.603Z,4.03
2023-04-18T15:05:34.957Z,4.55
2023-04-18T15:08:37.223Z,4.55
2023-04-18T15:11:39.758Z,4.63
2023-04-18T15:14:41.979Z,4.78
2023-04-18T15:17:44.480Z,4.45
2023-04-18T15:20:47.412Z,4.82
2023-04-18T15:23:49.869Z,4.30
2023-04-18T15:26:52.265Z,5.22
2023-04-18T15:29:57.442Z,5.40
2023-04-18T15:32:59.688Z,5.65
2023-04-18T15:36:02.208Z,3.92
2023-04-18T15:39:05.832Z,9.32
2023-04-18T15:42:08.358Z,10.98
2023-04-18T15:45:11.620Z,5.32
2023-04-18T15:51:16.086Z,4.40
2023-04-18T15:54:18.558Z,6.45
2023-04-18T15:57:21.412Z,8.45
2023-04-18T16:00:24.423Z,5.72
2023-04-18T16:03:27.228Z,3.53
2023-04-18T16:06:31.229Z,4.12
2023-04-18T16:09:34.042Z,6.57
2023-04-18T16:12:37.712Z,4.72
2023-04-18T16:15:41.864Z,3.62
2023-04-18T16:18:44.116Z,8.07
2023-04-18T16:21:48.780Z,5.40
2023-04-18T16:24:50.923Z,7.15
2023-04-18T16:27:53.805Z,4.82
2023-04-18T16:30:56.301Z,3.65
2023-04-18T16:33:58.859Z,5.65
2023-04-18T16:37:01.196Z,4.75
2023-04-18T16:40:08.470Z,4.37
2023-04-18T16:43:10.656Z,4.55
2023-04-18T16:46:13.736Z,6.22
2023-04-18T16:49:16.151Z,4.45
2023-04-18T16:52:18.794Z,5.37
2023-04-18T16:55:21.075Z,6.05
2023-04-18T16:58:23.694Z,6.05
2023-04-18T17:01:26.023Z,6.37
2023-04-18T17:04:29.152Z,6.43
2023-04-18T17:07:31.448Z,7.03
2023-04-18T17:10:34.503Z,5.97
2023-04-18T17:13:37.145Z,6.57
2023-04-18T17:16:41.039Z,5.95
2023-04-18T17:19:43.350Z,5.30
2023-04-18T17:22:45.906Z,5.22
2023-04-18T17:25:48.287Z,5.68
2023-04-18T17:28:50.833Z,7.40
2023-04-18T17:31:53.179Z,6.05
2023-04-18T17:34:56.146Z,6.07
2023-04-18T17:37:58.431Z,4.20
2023-04-18T17:41:02.363Z,5.75
2023-04-18T17:47:07.582Z,8.55
2023-04-18T17:50:11.164Z,5.65
2023-04-18T17:53:15.814Z,6.45
2023-04-18T17:56:18.060Z,7.05
2023-04-18T17:59:20.655Z,4.68
2023-04-18T18:02:28.045Z,4.47
2023-04-18T18:05:30.766Z,6.45
2023-04-18T18:08:32.953Z,5.75
2023-04-18T18:11:35.695Z,6.25
2023-04-18T18:14:38.051Z,6.12
2023-04-18T18:17:40.671Z,5.62
2023-04-18T18:20:43.309Z,4.93
2023-04-18T18:23:45.939Z,7.57
2023-04-18T18:26:50.980Z,6.35
2023-04-18T18:29:54.369Z,9.65
2023-04-18T18:32:59.981Z,6.55
2023-04-18T18:36:02.699Z,10.10
2023-04-18T18:39:05.289Z,7.40
2023-04-18T18:42:07.867Z,7.07
2023-04-18T18:45:11.643Z,9.45
2023-04-18T18:48:15.357Z,7.43
2023-04-18T18:51:19.001Z,8.45
2023-04-18T18:54:21.493Z,7.85
2023-04-18T18:57:23.728Z,6.80
2023-04-18T19:00:26.288Z,7.03
2023-04-18T19:03:29.057Z,8.13
2023-04-18T19:06:32.136Z,8.15
2023-04-18T19:09:36.867Z,6.80
2023-04-18T19:12:39.434Z,12.37
2023-04-18T19:15:41.614Z,8.85
2023-04-18T19:18:47.052Z,9.50
2023-04-18T19:21:50.088Z,9.07
2023-04-18T19:24:52.589Z,11.80
2023-04-18T19:27:54.770Z,8.43
2023-04-18T19:30:57.363Z,10.32
2023-04-18T19:33:59.596Z,7.90
2023-04-18T19:37:02.171Z,8.55
2023-04-18T19:40:04.808Z,6.90
2023-04-18T19:43:07.309Z,7.30
2023-04-18T19:46:09.671Z,6.15
2023-04-18T19:49:12.459Z,8.17
2023-04-18T19:52:14.766Z,12.32
2023-04-18T19:55:17.214Z,7.22
2023-04-18T19:58:44.850Z,7.82
2023-04-18T20:01:47.606Z,7.18
2023-04-18T20:04:50.611Z,8.70
2023-04-18T20:07:52.891Z,7.60
2023-04-18T20:10:56.201Z,7.18
2023-04-18T20:13:58.444Z,6.57
2023-04-18T20:17:00.944Z,8.18
2023-04-18T20:20:04.499Z,8.35
2023-04-18T20:23:07.370Z,8.00
2023-04-18T20:26:09.712Z,7.30
2023-04-18T20:29:12.496Z,5.55
2023-04-18T20:32:14.983Z,6.00
2023-04-18T20:35:17.612Z,5.40
2023-04-18T20:38:20.076Z,8.45
2023-04-18T20:41:24.253Z,6.47
2023-04-18T20:44:26.541Z,6.50
2023-04-18T20:47:29.032Z,6.50
2023-04-18T20:50:31.452Z,4.57
2023-04-18T20:53:34.012Z,6.00
2023-04-18T20:56:36.992Z,7.03
2023-04-18T20:59:39.489Z,6.15
2023-04-18T21:02:41.979Z,5.60
2023-04-18T21:05:45.032Z,6.07
2023-04-18T21:08:47.615Z,4.70
2023-04-18T21:11:50.052Z,5.80
2023-04-18T21:14:52.499Z,6.37
2023-04-18T21:17:55.928Z,7.23
2023-04-18T21:20:58.196Z,6.15
2023-04-18T21:24:01.738Z,5.72
2023-04-18T21:27:04.159Z,6.45
2023-04-18T21:30:07.240Z,7.27
2023-04-18T21:33:09.497Z,8.02
2023-04-18T21:36:11.922Z,7.75
2023-04-18T21:39:14.125Z,8.85
2023-04-18T21:42:16.868Z,10.32
2023-04-18T21:45:19.106Z,7.97
2023-04-18T21:48:21.728Z,6.32
2023-04-18T21:51:23.930Z,10.05
2023-04-18T21:54:26.464Z,6.97
2023-04-18T21:57:28.796Z,7.43
2023-04-18T22:00:31.287Z,9.02
2023-04-18T22:03:34.448Z,8.48
2023-04-18T22:06:36.771Z,8.07
2023-04-18T22:09:39.758Z,6.68
2023-04-18T22:12:42.425Z,8.20
2023-04-18T22:15:45.026Z,9.73
2023-04-18T22:18:48.822Z,5.28
2023-04-18T22:21:51.561Z,6.53
2023-04-18T22:24:53.820Z,9.30
2023-04-18T22:27:56.495Z,7.37
2023-04-18T22:30:58.722Z,7.45
2023-04-18T22:34:01.434Z,7.20
2023-04-18T22:37:03.711Z,7.90
2023-04-18T22:40:07.000Z,6.45
2023-04-18T22:43:09.174Z,5.97
2023-04-18T22:46:11.654Z,7.12
2023-04-18T22:49:14.224Z,7.60
2023-04-18T22:52:16.659Z,6.30
2023-04-18T22:55:19.948Z,7.22
2023-04-18T22:58:22.424Z,7.87
2023-04-18T23:01:24.671Z,9.43
2023-04-18T23:04:30.022Z,6.67
2023-04-18T23:07:32.405Z,6.15
2023-04-18T23:10:35.099Z,5.85
2023-04-18T23:13:37.315Z,6.37
2023-04-18T23:16:41.033Z,6.93
2023-04-18T23:19:45.168Z,6.68
2023-04-18T23:22:50.069Z,5.10
2023-04-18T23:25:52.290Z,7.35
2023-04-18T23:28:54.844Z,8.98
2023-04-18T23:31:57.097Z,7.90
2023-04-18T23:35:04.080Z,8.35
2023-04-18T23:38:06.287Z,6.07
2023-04-18T23:41:08.734Z,7.07
2023-04-18T23:44:10.911Z,6.78
2023-04-18T23:47:13.450Z,7.28
2023-04-18T23:50:15.803Z,7.10
2023-04-18T23:53:19.257Z,6.12
2023-04-18T23:56:23.116Z,7.40
2023-04-18T23:59:25.588Z,7.78
